createdAt,value
2023-02-12T00:01:11.133Z,4.13
2023-02-12T00:03:39.656Z,4.07
2023-02-12T00:06:08.687Z,3.37
2023-02-12T00:08:37.659Z,3.40
2023-02-12T00:11:10.799Z,3.73
2023-02-12T00:13:39.206Z,3.30
2023-02-12T00:16:08.987Z,3.00
2023-02-12T00:18:37.151Z,2.50
2023-02-12T00:21:05.586Z,2.73
2023-02-12T00:23:33.149Z,2.33
2023-02-12T00:26:00.958Z,2.10
2023-02-12T00:28:28.470Z,2.30
2023-02-12T00:30:56.201Z,2.00
2023-02-12T00:33:23.780Z,2.50
2023-02-12T00:35:57.983Z,1.90
2023-02-12T00:38:25.525Z,2.50
2023-02-12T00:40:53.214Z,2.20
2023-02-12T00:43:20.985Z,2.00
2023-02-12T00:45:48.484Z,2.27
2023-02-12T00:48:17.897Z,2.30
2023-02-12T00:50:48.030Z,2.23
2023-02-12T00:53:15.775Z,2.70
2023-02-12T00:55:43.765Z,3.03
2023-02-12T00:58:11.452Z,2.83
2023-02-12T01:00:38.936Z,2.83
2023-02-12T01:03:06.601Z,2.70
2023-02-12T01:05:34.116Z,3.00
2023-02-12T01:08:02.136Z,2.93
2023-02-12T01:10:31.604Z,3.17
2023-02-12T01:12:59.172Z,2.90
2023-02-12T01:15:26.701Z,2.90
2023-02-12T01:17:54.458Z,3.03
2023-02-12T01:20:24.111Z,2.83
2023-02-12T01:22:52.466Z,3.10
2023-02-12T01:25:21.602Z,3.80
2023-02-12T01:27:49.236Z,3.50
2023-02-12T01:30:16.939Z,3.50
2023-02-12T01:32:44.948Z,3.43
2023-02-12T01:35:12.438Z,3.13
2023-02-12T01:37:41.650Z,3.20
2023-02-12T01:40:10.296Z,3.10
2023-02-12T01:42:37.950Z,3.03
2023-02-12T01:45:14.499Z,3.30
2023-02-12T01:47:44.317Z,3.28
2023-02-12T01:50:15.352Z,3.47
2023-02-12T01:52:48.303Z,3.60
2023-02-12T01:55:16.230Z,3.40
2023-02-12T01:57:48.268Z,2.87
2023-02-12T02:00:26.862Z,3.07
2023-02-12T02:02:58.653Z,3.17
2023-02-12T02:06:01.523Z,3.07
2023-02-12T02:08:29.328Z,3.00
2023-02-12T02:10:56.870Z,2.60
2023-02-12T02:13:43.259Z,3.60
2023-02-12T02:16:34.298Z,2.77
2023-02-12T02:19:43.152Z,2.37
2023-02-12T02:22:24.592Z,2.08
2023-02-12T02:24:52.052Z,2.43
2023-02-12T02:27:31.711Z,2.43
2023-02-12T02:30:20.349Z,1.90
2023-02-12T02:33:25.812Z,2.10
2023-02-12T02:36:13.939Z,1.90
2023-02-12T02:39:06.619Z,1.73
2023-02-12T02:41:44.330Z,1.83
2023-02-12T02:44:18.352Z,1.50
2023-02-12T02:46:54.742Z,1.90
2023-02-12T02:49:27.409Z,2.17
2023-02-12T02:52:10.380Z,2.10
2023-02-12T02:54:46.338Z,2.23
2023-02-12T02:57:22.125Z,2.20
2023-02-12T02:59:58.501Z,2.23
2023-02-12T03:02:33.944Z,2.17
2023-02-12T03:05:08.285Z,2.40
2023-02-12T03:07:44.948Z,2.33
2023-02-12T03:10:18.501Z,2.53
2023-02-12T03:12:58.316Z,2.50
2023-02-12T03:15:51.502Z,2.70
2023-02-12T03:18:27.998Z,2.87
2023-02-12T03:21:02.516Z,3.07
2023-02-12T03:23:40.516Z,2.70
2023-02-12T03:26:23.184Z,2.80
2023-02-12T03:28:51.500Z,3.03
2023-02-12T03:31:24.611Z,2.47
2023-02-12T03:33:58.069Z,3.00
2023-02-12T03:36:28.241Z,2.53
2023-02-12T03:38:58.410Z,2.60
2023-02-12T03:41:26.400Z,2.33
2023-02-12T03:43:56.677Z,2.27
2023-02-12T03:46:55.549Z,2.37
2023-02-12T03:50:02.890Z,2.60
2023-02-12T03:52:31.590Z,2.10
2023-02-12T03:55:00.033Z,2.07
2023-02-12T03:57:34.377Z,2.20
2023-02-12T04:00:06.658Z,1.90
2023-02-12T04:02:43.093Z,2.00
2023-02-12T04:05:22.961Z,2.47
2023-02-12T04:07:53.474Z,2.07
2023-02-12T04:10:32.960Z,1.87
2023-02-12T04:13:03.565Z,2.10
2023-02-12T04:15:40.255Z,1.90
2023-02-12T04:18:19.869Z,1.63
2023-02-12T04:21:08.985Z,2.50
2023-02-12T04:23:39.223Z,1.90
2023-02-12T04:26:36.179Z,1.73
2023-02-12T04:29:20.733Z,1.80
2023-02-12T04:31:51.141Z,1.40
2023-02-12T04:34:44.310Z,1.57
2023-02-12T04:37:11.698Z,1.40
2023-02-12T04:39:41.520Z,1.27
2023-02-12T04:42:09.304Z,2.03
2023-02-12T04:44:40.776Z,1.37
2023-02-12T04:47:10.445Z,2.03
2023-02-12T04:49:38.047Z,1.63
2023-02-12T04:52:05.602Z,1.77
2023-02-12T04:54:33.579Z,1.70
2023-02-12T04:57:01.636Z,1.47
2023-02-12T04:59:29.071Z,1.70
2023-02-12T05:01:57.241Z,1.33
2023-02-12T05:04:24.751Z,1.70
2023-02-12T05:06:52.287Z,1.87
2023-02-12T05:09:20.839Z,1.57
2023-02-12T05:11:48.689Z,1.60
2023-02-12T05:14:16.464Z,2.00
2023-02-12T05:16:43.991Z,1.00
2023-02-12T05:19:12.116Z,1.10
2023-02-12T05:21:39.613Z,1.40
2023-02-12T05:24:07.350Z,1.40
2023-02-12T05:26:36.070Z,1.07
2023-02-12T05:29:03.908Z,0.87
2023-02-12T05:31:31.551Z,1.40
2023-02-12T05:33:59.497Z,1.13
2023-02-12T05:36:27.234Z,1.10
2023-02-12T05:38:58.576Z,1.17
2023-02-12T05:41:27.243Z,0.93
2023-02-12T05:43:54.734Z,1.20
2023-02-12T05:46:22.621Z,1.00
2023-02-12T05:48:50.343Z,1.10
2023-02-12T05:51:21.935Z,0.93
2023-02-12T05:56:33.143Z,0.90
2023-02-12T05:59:04.536Z,1.10
2023-02-12T06:01:41.032Z,1.03
2023-02-12T06:04:14.072Z,4.87
2023-02-12T06:06:42.315Z,1.40
2023-02-12T06:09:11.808Z,1.13
2023-02-12T06:11:39.992Z,1.23
2023-02-12T06:14:09.713Z,1.00
2023-02-12T06:16:37.252Z,0.90
2023-02-12T06:19:05.983Z,1.47
2023-02-12T06:21:34.177Z,1.30
2023-02-12T06:24:01.946Z,0.97
2023-02-12T06:26:29.478Z,1.00
2023-02-12T06:28:57.111Z,1.00
2023-02-12T06:31:28.174Z,0.90
2023-02-12T06:33:59.532Z,0.90
2023-02-12T06:36:27.575Z,0.87
2023-02-12T06:38:55.288Z,1.53
2023-02-12T06:41:23.707Z,1.10
2023-02-12T06:43:51.428Z,1.10
2023-02-12T06:46:20.444Z,0.80
2023-02-12T06:48:48.147Z,1.17
2023-02-12T06:51:18.200Z,0.90
2023-02-12T06:53:45.836Z,1.10
2023-02-12T06:56:14.130Z,0.83
2023-02-12T06:58:45.996Z,1.00
2023-02-12T07:01:18.112Z,0.90
2023-02-12T07:03:52.543Z,1.00
2023-02-12T07:06:20.929Z,1.17
2023-02-12T07:08:49.053Z,0.93
2023-02-12T07:11:17.046Z,1.00
2023-02-12T07:13:45.654Z,0.77
2023-02-12T07:16:16.024Z,0.80
2023-02-12T07:18:44.664Z,0.93
2023-02-12T07:21:13.502Z,1.00
2023-02-12T07:23:41.701Z,0.70
2023-02-12T07:26:12.283Z,1.10
2023-02-12T07:28:40.010Z,1.00
2023-02-12T07:31:12.127Z,0.93
2023-02-12T07:33:40.690Z,0.63
2023-02-12T07:36:11.217Z,0.90
2023-02-12T07:38:41.841Z,0.80
2023-02-12T07:41:30.554Z,1.00
2023-02-12T07:44:06.832Z,0.60
2023-02-12T07:46:37.728Z,0.90
2023-02-12T07:49:07.580Z,0.80
2023-02-12T07:51:35.419Z,0.97
2023-02-12T07:54:04.033Z,0.57
2023-02-12T07:56:35.411Z,1.00
2023-02-12T07:59:08.147Z,0.80
2023-02-12T08:02:02.026Z,0.77
2023-02-12T08:04:29.779Z,0.90
2023-02-12T08:06:57.458Z,0.93
2023-02-12T08:09:28.650Z,1.03
2023-02-12T08:11:56.473Z,0.77
2023-02-12T08:14:24.050Z,0.93
2023-02-12T08:16:52.268Z,0.80
2023-02-12T08:19:23.973Z,0.70
2023-02-12T08:21:55.047Z,0.87
2023-02-12T08:24:23.754Z,0.87
2023-02-12T08:26:52.289Z,1.00
2023-02-12T08:29:24.250Z,1.00
2023-02-12T08:31:57.713Z,0.97
2023-02-12T08:34:28.349Z,0.60
2023-02-12T08:37:04.165Z,0.60
2023-02-12T08:39:31.788Z,0.83
2023-02-12T08:42:01.593Z,0.70
2023-02-12T08:44:29.766Z,0.80
2023-02-12T08:46:59.909Z,0.70
2023-02-12T08:49:29.976Z,0.70
2023-02-12T08:52:01.971Z,1.03
2023-02-12T08:54:32.454Z,1.07
2023-02-12T08:57:02.414Z,0.97
2023-02-12T08:59:29.930Z,0.80
2023-02-12T09:01:57.619Z,1.00
2023-02-12T09:04:27.404Z,0.80
2023-02-12T09:06:55.384Z,1.03
2023-02-12T09:09:22.982Z,1.30
2023-02-12T09:11:51.090Z,0.77
2023-02-12T09:14:24.675Z,0.70
2023-02-12T09:16:53.347Z,1.13
2023-02-12T09:19:21.481Z,1.27
2023-02-12T09:21:56.464Z,1.10
2023-02-12T09:24:25.841Z,0.80
2023-02-12T09:26:53.422Z,0.90
2023-02-12T09:29:20.972Z,0.83
2023-02-12T09:31:48.875Z,1.03
2023-02-12T09:34:16.645Z,0.70
2023-02-12T09:36:44.095Z,0.67
2023-02-12T09:39:11.572Z,1.10
2023-02-12T09:42:10.070Z,0.93
2023-02-12T09:44:43.515Z,0.90
2023-02-12T09:47:26.014Z,0.60
2023-02-12T09:50:20.545Z,1.03
2023-02-12T09:52:49.295Z,0.77
2023-02-12T09:55:18.384Z,1.10
2023-02-12T09:57:46.948Z,0.80
2023-02-12T10:00:31.961Z,0.80
2023-02-12T10:03:09.728Z,1.00
2023-02-12T10:05:53.801Z,0.70
2023-02-12T10:08:37.497Z,1.20
2023-02-12T10:11:20.294Z,0.63
2023-02-12T10:14:05.782Z,0.70
2023-02-12T10:16:56.932Z,1.05
2023-02-12T10:19:49.225Z,1.00
2023-02-12T10:22:28.756Z,0.80
2023-02-12T10:25:14.059Z,0.90
2023-02-12T10:27:49.255Z,1.00
2023-02-12T10:30:25.338Z,0.85
2023-02-12T10:33:03.259Z,0.90
2023-02-12T10:35:32.492Z,0.73
2023-02-12T10:38:17.788Z,0.82
2023-02-12T10:40:46.253Z,0.70
2023-02-12T10:43:16.710Z,0.60
2023-02-12T10:45:44.922Z,0.80
2023-02-12T10:48:36.592Z,1.13
2023-02-12T10:51:10.108Z,1.00
2023-02-12T10:53:40.589Z,0.73
2023-02-12T10:56:14.037Z,1.33
2023-02-12T10:58:52.659Z,0.98
2023-02-12T11:01:27.716Z,0.95
2023-02-12T11:03:57.297Z,1.10
2023-02-12T11:06:29.414Z,1.00
2023-02-12T11:08:58.233Z,1.02
2023-02-12T11:11:38.948Z,1.40
2023-02-12T11:14:16.512Z,1.48
2023-02-12T11:16:57.367Z,1.17
2023-02-12T11:19:29.332Z,1.20
2023-02-12T11:22:19.062Z,1.00
2023-02-12T11:24:47.187Z,1.17
2023-02-12T11:27:30.565Z,1.23
2023-02-12T11:30:10.425Z,1.15
2023-02-12T11:32:38.373Z,1.40
2023-02-12T11:35:18.847Z,0.90
2023-02-12T11:37:47.746Z,1.17
2023-02-12T11:40:45.981Z,1.10
2023-02-12T11:43:18.610Z,1.20
2023-02-12T11:45:50.661Z,1.20
2023-02-12T11:48:29.645Z,1.27
2023-02-12T11:51:00.704Z,0.90
2023-02-12T11:53:40.292Z,1.10
2023-02-12T11:56:11.110Z,1.02
2023-02-12T11:58:39.529Z,1.30
2023-02-12T12:01:24.985Z,1.00
2023-02-12T12:04:20.758Z,1.35
2023-02-12T12:07:08.802Z,1.30
2023-02-12T12:10:00.850Z,0.93
2023-02-12T12:12:55.505Z,1.02
2023-02-12T12:15:47.522Z,1.30
2023-02-12T12:18:44.159Z,0.90
2023-02-12T12:21:44.700Z,1.40
2023-02-12T12:24:26.960Z,0.98
2023-02-12T12:27:03.439Z,1.08
2023-02-12T12:29:49.144Z,1.05
2023-02-12T12:32:19.828Z,0.80
2023-02-12T12:34:47.956Z,1.30
2023-02-12T12:37:58.417Z,0.90
2023-02-12T12:41:02.797Z,1.00
2023-02-12T12:43:51.635Z,0.83
2023-02-12T12:46:43.852Z,0.87
2023-02-12T12:49:59.344Z,1.03
2023-02-12T12:52:46.309Z,0.80
2023-02-12T12:56:17.806Z,1.10
2023-02-12T12:59:13.170Z,1.00
2023-02-12T13:01:43.499Z,0.73
2023-02-12T13:04:55.858Z,1.63
2023-02-12T13:07:38.662Z,1.37
2023-02-12T13:10:33.995Z,1.00
2023-02-12T13:13:19.961Z,0.90
2023-02-12T13:16:17.964Z,0.93
2023-02-12T13:18:48.493Z,0.90
2023-02-12T13:21:19.445Z,0.70
2023-02-12T13:23:58.625Z,0.90
2023-02-12T13:26:49.239Z,0.93
2023-02-12T13:29:28.938Z,0.87
2023-02-12T13:32:06.159Z,0.97
2023-02-12T13:34:37.254Z,1.40
2023-02-12T13:37:06.779Z,1.20
2023-02-12T13:39:45.493Z,1.03
2023-02-12T13:42:40.154Z,1.00
2023-02-12T13:45:29.425Z,1.00
2023-02-12T13:48:09.965Z,1.20
2023-02-12T13:50:46.764Z,1.10
2023-02-12T13:53:26.978Z,1.30
2023-02-12T13:56:02.139Z,1.13
2023-02-12T13:58:32.777Z,1.03
2023-02-12T14:01:07.805Z,1.37
2023-02-12T14:03:37.302Z,0.90
2023-02-12T14:06:15.973Z,1.33
2023-02-12T14:08:47.632Z,1.07
2023-02-12T14:11:19.363Z,1.80
2023-02-12T14:14:00.561Z,1.20
2023-02-12T14:16:31.176Z,0.90
2023-02-12T14:19:35.796Z,0.80
2023-02-12T14:22:11.466Z,1.30
2023-02-12T14:24:39.019Z,0.80
2023-02-12T14:27:20.915Z,0.93
2023-02-12T14:30:07.082Z,0.97
2023-02-12T14:32:55.983Z,1.47
2023-02-12T14:35:26.606Z,0.80
2023-02-12T14:37:56.415Z,0.60
2023-02-12T14:40:33.147Z,1.10
2023-02-12T14:43:04.166Z,1.30
2023-02-12T14:45:37.084Z,1.00
2023-02-12T14:48:05.695Z,0.87
2023-02-12T14:50:52.180Z,0.80
2023-02-12T14:53:30.333Z,1.20
2023-02-12T14:56:00.168Z,2.20
2023-02-12T14:58:31.929Z,0.73
2023-02-12T15:01:03.628Z,1.30
2023-02-12T15:03:54.787Z,0.70
2023-02-12T15:06:31.818Z,0.70
2023-02-12T15:09:08.889Z,1.40
2023-02-12T15:12:03.885Z,1.03
2023-02-12T15:14:35.118Z,1.20
2023-02-12T15:17:26.577Z,2.73
2023-02-12T15:20:16.285Z,3.40
2023-02-12T15:22:46.066Z,3.07
2023-02-12T15:25:31.247Z,3.37
2023-02-12T15:28:04.703Z,3.80
2023-02-12T15:30:35.876Z,3.37
2023-02-12T15:33:08.946Z,3.20
2023-02-12T15:35:39.871Z,3.00
2023-02-12T15:38:09.641Z,2.27
2023-02-12T15:40:37.188Z,1.70
2023-02-12T15:43:18.163Z,1.63
2023-02-12T15:45:53.115Z,1.53
2023-02-12T15:48:30.522Z,1.30
2023-02-12T15:51:30.526Z,0.95
2023-02-12T15:54:05.907Z,1.30
2023-02-12T15:56:40.801Z,1.53
2023-02-12T15:59:20.238Z,1.23
2023-02-12T16:02:02.784Z,1.30
2023-02-12T16:04:43.310Z,1.50
2023-02-12T16:07:15.412Z,1.57
2023-02-12T16:09:44.976Z,2.10
2023-02-12T16:12:14.900Z,1.10
2023-02-12T16:14:54.856Z,1.30
2023-02-12T16:17:25.942Z,1.20
2023-02-12T16:19:55.848Z,1.70
2023-02-12T16:22:30.983Z,1.30
2023-02-12T16:24:59.231Z,1.40
2023-02-12T16:27:34.325Z,1.30
2023-02-12T16:30:22.449Z,1.60
2023-02-12T16:32:52.751Z,1.48
2023-02-12T16:35:30.181Z,1.50
2023-02-12T16:38:03.746Z,1.50
2023-02-12T16:40:34.858Z,1.70
2023-02-12T16:43:24.370Z,2.00
2023-02-12T16:46:04.779Z,1.93
2023-02-12T16:48:40.468Z,2.07
2023-02-12T16:51:26.390Z,2.13
2023-02-12T16:53:57.775Z,3.53
2023-02-12T16:56:34.359Z,2.77
2023-02-12T16:59:04.828Z,2.60
2023-02-12T17:01:38.460Z,2.27
2023-02-12T17:04:09.278Z,2.80
2023-02-12T17:06:41.280Z,2.83
2023-02-12T17:09:10.324Z,2.43
2023-02-12T17:11:38.893Z,1.80
2023-02-12T17:14:06.587Z,1.57
2023-02-12T17:16:34.439Z,1.73
2023-02-12T17:19:05.894Z,2.13
2023-02-12T17:21:47.930Z,2.53
2023-02-12T17:24:23.513Z,2.60
2023-02-12T17:27:01.077Z,2.20
2023-02-12T17:29:32.745Z,2.40
2023-02-12T17:32:00.617Z,2.90
2023-02-12T17:34:32.090Z,2.90
2023-02-12T17:37:07.492Z,2.70
2023-02-12T17:39:35.206Z,3.07
2023-02-12T17:42:03.859Z,2.30
2023-02-12T17:44:31.437Z,2.40
2023-02-12T17:46:59.152Z,2.43
2023-02-12T17:49:26.850Z,2.30
2023-02-12T17:51:55.868Z,1.63
2023-02-12T17:54:23.528Z,1.90
2023-02-12T17:56:51.027Z,1.40
2023-02-12T17:59:19.304Z,1.30
2023-02-12T18:01:46.928Z,1.57
2023-02-12T18:04:14.763Z,1.70
2023-02-12T18:06:42.522Z,1.83
2023-02-12T18:09:11.351Z,1.80
2023-02-12T18:11:40.483Z,2.90
2023-02-12T18:14:09.217Z,2.20
2023-02-12T18:16:37.271Z,1.83
2023-02-12T18:19:05.975Z,1.83
2023-02-12T18:21:35.511Z,1.80
2023-02-12T18:24:03.521Z,2.00
2023-02-12T18:26:31.507Z,1.57
2023-02-12T18:29:00.173Z,1.90
2023-02-12T18:31:29.364Z,1.90
2023-02-12T18:33:57.127Z,1.60
2023-02-12T18:36:25.138Z,2.07
2023-02-12T18:38:53.368Z,1.80
2023-02-12T18:41:26.846Z,2.23
2023-02-12T18:43:54.998Z,1.73
2023-02-12T18:46:26.343Z,2.13
2023-02-12T18:48:54.766Z,1.90
2023-02-12T18:51:28.132Z,2.20
2023-02-12T18:54:01.450Z,1.80
2023-02-12T18:56:39.410Z,2.23
2023-02-12T18:59:07.790Z,1.97
2023-02-12T19:01:36.887Z,1.80
2023-02-12T19:04:09.759Z,1.60
2023-02-12T19:06:44.435Z,1.80
2023-02-12T19:09:13.583Z,1.90
2023-02-12T19:11:46.871Z,1.73
2023-02-12T19:14:17.871Z,1.33
2023-02-12T19:16:47.165Z,1.80
2023-02-12T19:19:16.318Z,1.77
2023-02-12T19:21:44.203Z,1.87
2023-02-12T19:24:18.502Z,1.67
2023-02-12T19:26:46.149Z,2.40
2023-02-12T19:29:14.058Z,1.67
2023-02-12T19:31:45.112Z,1.70
2023-02-12T19:34:17.234Z,1.90
2023-02-12T19:36:48.868Z,1.53
2023-02-12T19:39:19.449Z,2.37
2023-02-12T19:41:48.127Z,1.70
2023-02-12T19:44:19.069Z,1.90
2023-02-12T19:46:48.684Z,2.00
2023-02-12T19:49:23.493Z,1.73
2023-02-12T19:51:51.821Z,2.20
2023-02-12T19:54:21.547Z,2.00
2023-02-12T19:56:49.607Z,1.93
2023-02-12T19:59:19.702Z,2.53
2023-02-12T20:01:48.638Z,1.97
2023-02-12T20:04:20.066Z,2.07
2023-02-12T20:06:51.064Z,1.80
2023-02-12T20:09:20.552Z,1.40
2023-02-12T20:11:48.321Z,1.80
2023-02-12T20:14:16.217Z,1.80
2023-02-12T20:16:46.891Z,2.17
2023-02-12T20:19:24.007Z,2.10
2023-02-12T20:21:56.102Z,1.63
2023-02-12T20:24:28.777Z,1.70
2023-02-12T20:26:57.825Z,1.50
2023-02-12T20:29:26.017Z,1.80
2023-02-12T20:31:53.774Z,1.97
2023-02-12T20:34:22.245Z,1.43
2023-02-12T20:36:50.013Z,1.70
2023-02-12T20:39:20.899Z,1.80
2023-02-12T20:41:49.483Z,1.53
2023-02-12T20:44:20.392Z,2.23
2023-02-12T20:46:52.481Z,1.50
2023-02-12T20:49:25.072Z,1.53
2023-02-12T20:51:53.096Z,2.43
2023-02-12T20:54:20.736Z,1.60
2023-02-12T20:56:49.890Z,1.73
2023-02-12T20:59:18.683Z,1.57
2023-02-12T21:01:47.156Z,1.60
2023-02-12T21:04:16.963Z,1.80
2023-02-12T21:06:45.881Z,1.80
2023-02-12T21:09:15.473Z,1.53
2023-02-12T21:11:45.753Z,1.50
2023-02-12T21:14:23.450Z,1.83
2023-02-12T21:16:56.029Z,1.10
2023-02-12T21:19:24.528Z,1.50
2023-02-12T21:21:53.002Z,2.53
2023-02-12T21:24:26.561Z,1.57
2023-02-12T21:26:55.513Z,1.43
2023-02-12T21:29:23.659Z,2.03
2023-02-12T21:31:54.448Z,1.60
2023-02-12T21:34:23.763Z,1.20
2023-02-12T21:36:54.803Z,1.70
2023-02-12T21:39:27.896Z,1.50
2023-02-12T21:42:04.107Z,1.20
2023-02-12T21:44:35.526Z,1.50
2023-02-12T21:47:04.668Z,1.10
2023-02-12T21:49:32.263Z,1.63
2023-02-12T21:52:02.579Z,1.40
2023-02-12T21:54:30.905Z,1.40
2023-02-12T21:56:59.537Z,1.20
2023-02-12T21:59:30.149Z,1.37
2023-02-12T22:01:59.262Z,1.40
2023-02-12T22:04:27.121Z,1.50
2023-02-12T22:06:56.602Z,1.73
2023-02-12T22:09:24.262Z,2.03
2023-02-12T22:11:52.604Z,1.50
2023-02-12T22:14:21.532Z,1.40
2023-02-12T22:16:49.959Z,1.40
2023-02-12T22:19:17.871Z,1.47
2023-02-12T22:21:45.574Z,1.30
2023-02-12T22:24:15.731Z,1.40
2023-02-12T22:26:44.180Z,1.50
2023-02-12T22:29:14.144Z,1.50
2023-02-12T22:31:44.098Z,1.30
2023-02-12T22:34:14.979Z,1.70
2023-02-12T22:36:43.872Z,1.43
2023-02-12T22:39:13.265Z,1.40
2023-02-12T22:41:42.559Z,1.53
2023-02-12T22:44:12.691Z,1.30
2023-02-12T22:46:41.969Z,1.13
2023-02-12T22:49:09.778Z,1.67
2023-02-12T22:51:39.597Z,1.63
2023-02-12T22:54:08.385Z,1.73
2023-02-12T22:56:57.653Z,1.50
2023-02-12T23:00:38.026Z,1.40
2023-02-12T23:07:20.681Z,1.60
2023-02-12T23:13:29.615Z,1.30
2023-02-12T23:16:01.439Z,1.33
2023-02-12T23:19:03.156Z,1.37
2023-02-12T23:21:32.180Z,1.30
2023-02-12T23:23:59.712Z,1.70
2023-02-12T23:26:29.259Z,1.67
2023-02-12T23:28:57.370Z,1.50
2023-02-12T23:31:25.561Z,1.67
2023-02-12T23:33:53.313Z,1.30
2023-02-12T23:36:21.075Z,1.10
2023-02-12T23:38:48.560Z,1.30
2023-02-12T23:41:16.093Z,1.37
2023-02-12T23:43:43.643Z,1.30
2023-02-12T23:46:11.291Z,1.37
2023-02-12T23:48:38.886Z,1.40
2023-02-12T23:51:06.468Z,1.23
2023-02-12T23:53:34.097Z,1.23
2023-02-12T23:56:01.677Z,1.40
2023-02-12T23:58:29.191Z,1.80
